sensor_id;sensor_type;location;lat;lon;timestamp;temperature;humidity
48876;DHT22;34689;51.644;5.618;2022-12-05T00:00:56;3.50;99.90
48876;DHT22;34689;51.644;5.618;2022-12-05T00:03:22;3.50;99.90
48876;DHT22;34689;51.644;5.618;2022-12-05T00:05:48;3.50;99.90
48876;DHT22;34689;51.644;5.618;2022-12-05T00:08:14;3.50;99.90
48876;DHT22;34689;51.644;5.618;2022-12-05T00:10:39;3.50;99.90
48876;DHT22;34689;51.644;5.618;2022-12-05T00:13:05;3.50;99.90
48876;DHT22;34689;51.644;5.618;2022-12-05T00:15:35;3.50;99.90
48876;DHT22;34689;51.644;5.618;2022-12-05T00:18:01;3.60;99.90
48876;DHT22;34689;51.644;5.618;2022-12-05T00:20:27;3.50;99.90
48876;DHT22;34689;51.644;5.618;2022-12-05T00:22:53;3.60;99.90
48876;DHT22;34689;51.644;5.618;2022-12-05T00:25:18;3.60;99.90
48876;DHT22;34689;51.644;5.618;2022-12-05T00:27:44;3.60;99.90
48876;DHT22;34689;51.644;5.618;2022-12-05T00:30:10;3.60;99.90
48876;DHT22;34689;51.644;5.618;2022-12-05T00:32:35;3.60;99.90
48876;DHT22;34689;51.644;5.618;2022-12-05T00:35:01;3.60;99.90
48876;DHT22;34689;51.644;5.618;2022-12-05T00:37:27;3.50;99.90
48876;DHT22;34689;51.644;5.618;2022-12-05T00:39:52;3.50;99.90
48876;DHT22;34689;51.644;5.618;2022-12-05T00:42:18;3.60;99.90
48876;DHT22;34689;51.644;5.618;2022-12-05T00:44:44;3.50;99.90
48876;DHT22;34689;51.644;5.618;2022-12-05T00:47:09;3.60;99.90
48876;DHT22;34689;51.644;5.618;2022-12-05T00:49:35;3.60;99.90
48876;DHT22;34689;51.644;5.618;2022-12-05T00:52:01;3.60;99.90
48876;DHT22;34689;51.644;5.618;2022-12-05T00:54:26;3.60;99.90
48876;DHT22;34689;51.644;5.618;2022-12-05T00:56:52;3.70;99.90
48876;DHT22;34689;51.644;5.618;2022-12-05T00:59:21;3.70;99.90
48876;DHT22;34689;51.644;5.618;2022-12-05T01:01:48;3.70;99.90
48876;DHT22;34689;51.644;5.618;2022-12-05T01:04:22;3.70;99.90
48876;DHT22;34689;51.644;5.618;2022-12-05T01:06:48;3.60;99.90
48876;DHT22;34689;51.644;5.618;2022-12-05T01:09:16;3.70;99.90
48876;DHT22;34689;51.644;5.618;2022-12-05T01:11:43;3.70;99.90
48876;DHT22;34689;51.644;5.618;2022-12-05T01:14:09;3.70;99.90
48876;DHT22;34689;51.644;5.618;2022-12-05T01:16:37;3.70;99.90
48876;DHT22;34689;51.644;5.618;2022-12-05T01:19:11;3.70;99.90
48876;DHT22;34689;51.644;5.618;2022-12-05T01:21:36;3.70;99.90
48876;DHT22;34689;51.644;5.618;2022-12-05T01:24:02;3.70;99.90
48876;DHT22;34689;51.644;5.618;2022-12-05T01:26:28;3.70;99.90
48876;DHT22;34689;51.644;5.618;2022-12-05T01:28:54;3.70;99.90
48876;DHT22;34689;51.644;5.618;2022-12-05T01:33:48;3.80;99.90
48876;DHT22;34689;51.644;5.618;2022-12-05T01:36:14;3.70;99.90
48876;DHT22;34689;51.644;5.618;2022-12-05T01:38:41;3.80;99.90
48876;DHT22;34689;51.644;5.618;2022-12-05T01:41:11;3.70;99.90
48876;DHT22;34689;51.644;5.618;2022-12-05T01:43:58;3.70;99.90
48876;DHT22;34689;51.644;5.618;2022-12-05T01:46:25;3.70;99.90
48876;DHT22;34689;51.644;5.618;2022-12-05T01:48:59;3.80;99.90
48876;DHT22;34689;51.644;5.618;2022-12-05T01:51:26;3.70;99.90
48876;DHT22;34689;51.644;5.618;2022-12-05T01:53:52;3.70;99.90
48876;DHT22;34689;51.644;5.618;2022-12-05T01:56:18;3.70;99.90
48876;DHT22;34689;51.644;5.618;2022-12-05T01:58:44;3.80;99.90
48876;DHT22;34689;51.644;5.618;2022-12-05T02:01:12;3.80;99.90
48876;DHT22;34689;51.644;5.618;2022-12-05T02:03:40;3.80;99.90
48876;DHT22;34689;51.644;5.618;2022-12-05T02:06:07;3.80;99.90
48876;DHT22;34689;51.644;5.618;2022-12-05T02:08:33;3.80;99.90
48876;DHT22;34689;51.644;5.618;2022-12-05T02:10:59;3.80;99.90
48876;DHT22;34689;51.644;5.618;2022-12-05T02:21:47;3.80;99.90
48876;DHT22;34689;51.644;5.618;2022-12-05T02:35:17;3.80;99.90
48876;DHT22;34689;51.644;5.618;2022-12-05T02:40:38;3.80;99.90
48876;DHT22;34689;51.644;5.618;2022-12-05T02:45:54;3.80;99.90
48876;DHT22;34689;51.644;5.618;2022-12-05T02:48:21;3.80;99.90
48876;DHT22;34689;51.644;5.618;2022-12-05T02:50:51;3.80;99.90
48876;DHT22;34689;51.644;5.618;2022-12-05T02:53:20;3.90;99.90
48876;DHT22;34689;51.644;5.618;2022-12-05T02:55:46;3.80;99.90
48876;DHT22;34689;51.644;5.618;2022-12-05T02:58:22;3.80;99.90
48876;DHT22;34689;51.644;5.618;2022-12-05T03:00:49;3.80;99.90
48876;DHT22;34689;51.644;5.618;2022-12-05T03:03:19;3.80;99.90
48876;DHT22;34689;51.644;5.618;2022-12-05T03:06:07;3.80;99.90
48876;DHT22;34689;51.644;5.618;2022-12-05T03:08:55;3.90;99.90
48876;DHT22;34689;51.644;5.618;2022-12-05T03:11:22;3.80;99.90
48876;DHT22;34689;51.644;5.618;2022-12-05T03:13:51;3.90;99.90
48876;DHT22;34689;51.644;5.618;2022-12-05T03:16:48;3.80;99.90
48876;DHT22;34689;51.644;5.618;2022-12-05T03:19:17;3.80;99.90
48876;DHT22;34689;51.644;5.618;2022-12-05T03:22:02;3.90;99.90
48876;DHT22;34689;51.644;5.618;2022-12-05T03:24:34;3.90;99.90
48876;DHT22;34689;51.644;5.618;2022-12-05T03:32:25;3.90;99.90
48876;DHT22;34689;51.644;5.618;2022-12-05T03:43:15;3.90;99.90
48876;DHT22;34689;51.644;5.618;2022-12-05T03:45:57;3.90;99.90
48876;DHT22;34689;51.644;5.618;2022-12-05T03:51:09;3.90;99.90
48876;DHT22;34689;51.644;5.618;2022-12-05T03:53:53;3.90;99.90
48876;DHT22;34689;51.644;5.618;2022-12-05T03:56:30;3.90;99.90
48876;DHT22;34689;51.644;5.618;2022-12-05T04:01:55;3.90;99.90
48876;DHT22;34689;51.644;5.618;2022-12-05T04:04:35;3.90;99.90
48876;DHT22;34689;51.644;5.618;2022-12-05T04:07:04;3.90;99.90
48876;DHT22;34689;51.644;5.618;2022-12-05T04:09:39;3.90;99.90
48876;DHT22;34689;51.644;5.618;2022-12-05T04:12:14;3.90;99.90
48876;DHT22;34689;51.644;5.618;2022-12-05T04:14:44;3.90;99.90
48876;DHT22;34689;51.644;5.618;2022-12-05T04:17:16;3.90;99.90
48876;DHT22;34689;51.644;5.618;2022-12-05T04:19:53;3.90;99.90
48876;DHT22;34689;51.644;5.618;2022-12-05T04:22:38;3.90;99.90
48876;DHT22;34689;51.644;5.618;2022-12-05T04:25:07;3.90;99.90
48876;DHT22;34689;51.644;5.618;2022-12-05T04:27:58;3.90;99.90
48876;DHT22;34689;51.644;5.618;2022-12-05T04:30:27;3.90;99.90
48876;DHT22;34689;51.644;5.618;2022-12-05T04:33:07;3.90;99.90
48876;DHT22;34689;51.644;5.618;2022-12-05T04:35:51;3.90;99.90
48876;DHT22;34689;51.644;5.618;2022-12-05T04:38:29;3.90;99.90
48876;DHT22;34689;51.644;5.618;2022-12-05T04:41:00;3.90;99.90
48876;DHT22;34689;51.644;5.618;2022-12-05T04:43:28;4.00;99.90
48876;DHT22;34689;51.644;5.618;2022-12-05T04:45:56;3.90;99.90
48876;DHT22;34689;51.644;5.618;2022-12-05T04:48:24;4.00;99.90
48876;DHT22;34689;51.644;5.618;2022-12-05T04:50:53;3.90;99.90
48876;DHT22;34689;51.644;5.618;2022-12-05T04:53:21;4.00;99.90
48876;DHT22;34689;51.644;5.618;2022-12-05T04:55:50;3.90;99.90
48876;DHT22;34689;51.644;5.618;2022-12-05T04:58:23;4.00;99.90
48876;DHT22;34689;51.644;5.618;2022-12-05T05:00:55;4.00;99.90
48876;DHT22;34689;51.644;5.618;2022-12-05T05:03:30;4.00;99.90
48876;DHT22;34689;51.644;5.618;2022-12-05T05:05:57;4.00;99.90
48876;DHT22;34689;51.644;5.618;2022-12-05T05:08:25;4.00;99.90
48876;DHT22;34689;51.644;5.618;2022-12-05T05:11:15;4.00;99.90
48876;DHT22;34689;51.644;5.618;2022-12-05T05:13:41;4.00;99.90
48876;DHT22;34689;51.644;5.618;2022-12-05T05:16:07;4.00;99.90
48876;DHT22;34689;51.644;5.618;2022-12-05T05:18:33;4.00;99.90
48876;DHT22;34689;51.644;5.618;2022-12-05T05:20:59;4.00;99.90
48876;DHT22;34689;51.644;5.618;2022-12-05T05:23:24;4.00;99.90
48876;DHT22;34689;51.644;5.618;2022-12-05T05:25:54;4.00;99.90
48876;DHT22;34689;51.644;5.618;2022-12-05T05:28:21;4.00;99.90
48876;DHT22;34689;51.644;5.618;2022-12-05T05:30:47;4.00;99.90
48876;DHT22;34689;51.644;5.618;2022-12-05T05:33:14;4.00;99.90
48876;DHT22;34689;51.644;5.618;2022-12-05T05:35:40;4.00;99.90
48876;DHT22;34689;51.644;5.618;2022-12-05T05:38:05;4.10;99.90
48876;DHT22;34689;51.644;5.618;2022-12-05T05:40:35;4.10;99.90
48876;DHT22;34689;51.644;5.618;2022-12-05T05:43:01;4.10;99.90
48876;DHT22;34689;51.644;5.618;2022-12-05T05:45:26;4.10;99.90
48876;DHT22;34689;51.644;5.618;2022-12-05T05:47:52;4.10;99.90
48876;DHT22;34689;51.644;5.618;2022-12-05T05:50:18;4.00;99.90
48876;DHT22;34689;51.644;5.618;2022-12-05T05:52:43;4.10;99.90
48876;DHT22;34689;51.644;5.618;2022-12-05T05:55:09;4.10;99.90
48876;DHT22;34689;51.644;5.618;2022-12-05T05:57:35;4.10;99.90
48876;DHT22;34689;51.644;5.618;2022-12-05T06:00:04;4.10;99.90
48876;DHT22;34689;51.644;5.618;2022-12-05T06:02:31;4.10;99.90
48876;DHT22;34689;51.644;5.618;2022-12-05T06:04:57;4.10;99.90
48876;DHT22;34689;51.644;5.618;2022-12-05T06:07:23;4.10;99.90
48876;DHT22;34689;51.644;5.618;2022-12-05T06:09:49;4.10;99.90
48876;DHT22;34689;51.644;5.618;2022-12-05T06:12:14;4.10;99.90
48876;DHT22;34689;51.644;5.618;2022-12-05T06:14:40;4.10;99.90
48876;DHT22;34689;51.644;5.618;2022-12-05T06:17:06;4.10;99.90
48876;DHT22;34689;51.644;5.618;2022-12-05T06:19:31;4.10;99.90
48876;DHT22;34689;51.644;5.618;2022-12-05T06:21:57;4.10;99.90
48876;DHT22;34689;51.644;5.618;2022-12-05T06:24:23;4.10;99.90
48876;DHT22;34689;51.644;5.618;2022-12-05T06:26:48;4.20;99.90
48876;DHT22;34689;51.644;5.618;2022-12-05T06:29:14;4.20;99.90
48876;DHT22;34689;51.644;5.618;2022-12-05T06:31:40;4.20;99.90
48876;DHT22;34689;51.644;5.618;2022-12-05T06:34:06;4.20;99.90
48876;DHT22;34689;51.644;5.618;2022-12-05T06:36:32;4.20;99.90
48876;DHT22;34689;51.644;5.618;2022-12-05T06:38:58;4.20;99.90
48876;DHT22;34689;51.644;5.618;2022-12-05T06:41:25;4.20;99.90
48876;DHT22;34689;51.644;5.618;2022-12-05T06:43:53;4.20;99.90
48876;DHT22;34689;51.644;5.618;2022-12-05T06:46:20;4.20;99.90
48876;DHT22;34689;51.644;5.618;2022-12-05T06:48:47;4.20;99.90
48876;DHT22;34689;51.644;5.618;2022-12-05T06:51:15;4.20;99.90
48876;DHT22;34689;51.644;5.618;2022-12-05T06:53:41;4.20;99.90
48876;DHT22;34689;51.644;5.618;2022-12-05T06:56:11;4.20;99.90
48876;DHT22;34689;51.644;5.618;2022-12-05T06:58:38;4.20;99.90
48876;DHT22;34689;51.644;5.618;2022-12-05T07:01:04;4.20;99.90
48876;DHT22;34689;51.644;5.618;2022-12-05T07:03:48;4.20;99.90
48876;DHT22;34689;51.644;5.618;2022-12-05T07:06:14;4.20;99.90
48876;DHT22;34689;51.644;5.618;2022-12-05T07:08:40;4.20;99.90
48876;DHT22;34689;51.644;5.618;2022-12-05T07:11:06;4.20;99.90
48876;DHT22;34689;51.644;5.618;2022-12-05T07:13:32;4.20;99.90
48876;DHT22;34689;51.644;5.618;2022-12-05T07:15:58;4.20;99.90
48876;DHT22;34689;51.644;5.618;2022-12-05T07:18:25;4.20;99.90
48876;DHT22;34689;51.644;5.618;2022-12-05T07:21:02;4.30;99.90
48876;DHT22;34689;51.644;5.618;2022-12-05T07:23:28;4.30;99.90
48876;DHT22;34689;51.644;5.618;2022-12-05T07:25:54;4.20;99.90
48876;DHT22;34689;51.644;5.618;2022-12-05T07:28:20;4.30;99.90
48876;DHT22;34689;51.644;5.618;2022-12-05T07:30:46;4.30;99.90
48876;DHT22;34689;51.644;5.618;2022-12-05T07:33:11;4.30;99.90
48876;DHT22;34689;51.644;5.618;2022-12-05T07:35:37;4.30;99.90
48876;DHT22;34689;51.644;5.618;2022-12-05T07:38:03;4.30;99.90
48876;DHT22;34689;51.644;5.618;2022-12-05T07:40:29;4.30;99.90
48876;DHT22;34689;51.644;5.618;2022-12-05T07:42:55;4.30;99.90
48876;DHT22;34689;51.644;5.618;2022-12-05T07:45:21;4.30;99.90
48876;DHT22;34689;51.644;5.618;2022-12-05T07:47:46;4.30;99.90
48876;DHT22;34689;51.644;5.618;2022-12-05T07:50:13;4.30;99.90
48876;DHT22;34689;51.644;5.618;2022-12-05T07:52:39;4.30;99.90
48876;DHT22;34689;51.644;5.618;2022-12-05T07:55:05;4.30;99.90
48876;DHT22;34689;51.644;5.618;2022-12-05T07:57:31;4.30;99.90
48876;DHT22;34689;51.644;5.618;2022-12-05T07:59:57;4.30;99.90
48876;DHT22;34689;51.644;5.618;2022-12-05T08:02:22;4.30;99.90
48876;DHT22;34689;51.644;5.618;2022-12-05T08:04:48;4.30;99.90
48876;DHT22;34689;51.644;5.618;2022-12-05T08:07:14;4.30;99.90
48876;DHT22;34689;51.644;5.618;2022-12-05T08:09:39;4.30;99.90
48876;DHT22;34689;51.644;5.618;2022-12-05T08:12:05;4.30;99.90
48876;DHT22;34689;51.644;5.618;2022-12-05T08:14:31;4.40;99.90
48876;DHT22;34689;51.644;5.618;2022-12-05T08:16:57;4.40;99.90
48876;DHT22;34689;51.644;5.618;2022-12-05T08:19:22;4.40;99.90
48876;DHT22;34689;51.644;5.618;2022-12-05T08:21:48;4.40;99.90
48876;DHT22;34689;51.644;5.618;2022-12-05T08:24:14;4.40;99.90
48876;DHT22;34689;51.644;5.618;2022-12-05T08:26:39;4.30;99.90
48876;DHT22;34689;51.644;5.618;2022-12-05T08:29:08;4.40;99.90
48876;DHT22;34689;51.644;5.618;2022-12-05T08:31:41;4.40;99.90
48876;DHT22;34689;51.644;5.618;2022-12-05T08:34:09;4.40;99.90
48876;DHT22;34689;51.644;5.618;2022-12-05T08:36:35;4.40;99.90
48876;DHT22;34689;51.644;5.618;2022-12-05T08:39:04;4.40;99.90
48876;DHT22;34689;51.644;5.618;2022-12-05T08:41:30;4.40;99.90
48876;DHT22;34689;51.644;5.618;2022-12-05T08:44:03;4.40;99.90
48876;DHT22;34689;51.644;5.618;2022-12-05T08:46:30;4.40;99.90
48876;DHT22;34689;51.644;5.618;2022-12-05T08:48:56;4.40;99.90
48876;DHT22;34689;51.644;5.618;2022-12-05T08:51:22;4.40;99.90
48876;DHT22;34689;51.644;5.618;2022-12-05T08:53:48;4.40;99.90
48876;DHT22;34689;51.644;5.618;2022-12-05T08:56:13;4.40;99.90
48876;DHT22;34689;51.644;5.618;2022-12-05T08:58:40;4.50;99.90
48876;DHT22;34689;51.644;5.618;2022-12-05T09:01:14;4.40;99.90
48876;DHT22;34689;51.644;5.618;2022-12-05T09:03:40;4.40;99.90
48876;DHT22;34689;51.644;5.618;2022-12-05T09:06:10;4.40;99.90
48876;DHT22;34689;51.644;5.618;2022-12-05T09:08:36;4.40;99.90
48876;DHT22;34689;51.644;5.618;2022-12-05T09:11:17;4.40;99.90
48876;DHT22;34689;51.644;5.618;2022-12-05T09:13:43;4.50;99.90
48876;DHT22;34689;51.644;5.618;2022-12-05T09:16:11;4.50;99.90
48876;DHT22;34689;51.644;5.618;2022-12-05T09:18:37;4.50;99.90
48876;DHT22;34689;51.644;5.618;2022-12-05T09:21:15;4.50;99.90
48876;DHT22;34689;51.644;5.618;2022-12-05T09:23:41;4.50;99.90
48876;DHT22;34689;51.644;5.618;2022-12-05T09:26:11;4.50;99.90
48876;DHT22;34689;51.644;5.618;2022-12-05T09:28:37;4.50;99.90
48876;DHT22;34689;51.644;5.618;2022-12-05T09:31:09;4.40;99.90
48876;DHT22;34689;51.644;5.618;2022-12-05T09:33:36;4.40;99.90
48876;DHT22;34689;51.644;5.618;2022-12-05T09:36:04;4.50;99.90
48876;DHT22;34689;51.644;5.618;2022-12-05T09:38:29;4.50;99.90
48876;DHT22;34689;51.644;5.618;2022-12-05T09:41:26;4.40;99.90
48876;DHT22;34689;51.644;5.618;2022-12-05T09:44:20;4.40;99.90
48876;DHT22;34689;51.644;5.618;2022-12-05T09:49:13;4.50;99.90
48876;DHT22;34689;51.644;5.618;2022-12-05T09:51:43;4.40;99.90
48876;DHT22;34689;51.644;5.618;2022-12-05T09:54:11;4.40;99.90
48876;DHT22;34689;51.644;5.618;2022-12-05T09:56:37;4.40;99.90
48876;DHT22;34689;51.644;5.618;2022-12-05T09:59:12;4.40;99.90
48876;DHT22;34689;51.644;5.618;2022-12-05T10:01:49;4.40;99.90
48876;DHT22;34689;51.644;5.618;2022-12-05T10:07:25;4.40;99.90
48876;DHT22;34689;51.644;5.618;2022-12-05T10:18:31;4.30;99.90
48876;DHT22;34689;51.644;5.618;2022-12-05T10:23:11;4.30;99.90
48876;DHT22;34689;51.644;5.618;2022-12-05T10:25:40;4.30;99.90
48876;DHT22;34689;51.644;5.618;2022-12-05T10:28:18;4.30;99.90
48876;DHT22;34689;51.644;5.618;2022-12-05T10:30:51;4.30;99.90
48876;DHT22;34689;51.644;5.618;2022-12-05T10:33:21;4.30;99.90
48876;DHT22;34689;51.644;5.618;2022-12-05T10:35:47;4.30;99.90
48876;DHT22;34689;51.644;5.618;2022-12-05T10:38:22;4.30;99.90
48876;DHT22;34689;51.644;5.618;2022-12-05T10:40:50;4.30;99.90
48876;DHT22;34689;51.644;5.618;2022-12-05T10:43:24;4.30;99.90
48876;DHT22;34689;51.644;5.618;2022-12-05T10:45:50;4.30;99.90
48876;DHT22;34689;51.644;5.618;2022-12-05T10:48:17;4.30;99.90
48876;DHT22;34689;51.644;5.618;2022-12-05T10:50:45;4.30;99.90
48876;DHT22;34689;51.644;5.618;2022-12-05T10:53:23;4.30;99.90
48876;DHT22;34689;51.644;5.618;2022-12-05T10:55:49;4.30;99.90
48876;DHT22;34689;51.644;5.618;2022-12-05T10:58:28;4.40;99.90
48876;DHT22;34689;51.644;5.618;2022-12-05T11:01:08;4.30;99.90
48876;DHT22;34689;51.644;5.618;2022-12-05T11:03:37;4.30;99.90
48876;DHT22;34689;51.644;5.618;2022-12-05T11:06:25;4.30;99.90
48876;DHT22;34689;51.644;5.618;2022-12-05T11:09:18;4.30;99.90
48876;DHT22;34689;51.644;5.618;2022-12-05T11:11:42;4.30;99.90
48876;DHT22;34689;51.644;5.618;2022-12-05T11:14:23;4.30;99.90
48876;DHT22;34689;51.644;5.618;2022-12-05T11:16:55;4.30;99.90
48876;DHT22;34689;51.644;5.618;2022-12-05T11:21:48;4.30;99.90
48876;DHT22;34689;51.644;5.618;2022-12-05T11:24:42;4.30;99.90
48876;DHT22;34689;51.644;5.618;2022-12-05T11:29:43;4.30;99.90
48876;DHT22;34689;51.644;5.618;2022-12-05T11:32:18;4.30;99.90
48876;DHT22;34689;51.644;5.618;2022-12-05T11:35:03;4.30;99.90
48876;DHT22;34689;51.644;5.618;2022-12-05T11:37:54;4.30;99.90
48876;DHT22;34689;51.644;5.618;2022-12-05T11:40:45;4.20;99.90
48876;DHT22;34689;51.644;5.618;2022-12-05T11:46:10;4.30;99.90
48876;DHT22;34689;51.644;5.618;2022-12-05T11:57:40;4.20;99.90
48876;DHT22;34689;51.644;5.618;2022-12-05T12:05:07;4.10;99.90
48876;DHT22;34689;51.644;5.618;2022-12-05T12:16:16;4.10;99.90
48876;DHT22;34689;51.644;5.618;2022-12-05T12:19:15;4.10;99.90
48876;DHT22;34689;51.644;5.618;2022-12-05T12:22:24;4.10;99.90
48876;DHT22;34689;51.644;5.618;2022-12-05T12:25:15;4.10;99.90
48876;DHT22;34689;51.644;5.618;2022-12-05T12:27:48;4.10;99.90
48876;DHT22;34689;51.644;5.618;2022-12-05T12:33:56;4.10;99.90
48876;DHT22;34689;51.644;5.618;2022-12-05T12:36:34;4.20;99.90
48876;DHT22;34689;51.644;5.618;2022-12-05T12:41:59;4.20;99.90
48876;DHT22;34689;51.644;5.618;2022-12-05T12:47:39;4.20;99.90
48876;DHT22;34689;51.644;5.618;2022-12-05T12:55:52;4.30;99.90
48876;DHT22;34689;51.644;5.618;2022-12-05T12:58:46;4.30;99.90
48876;DHT22;34689;51.644;5.618;2022-12-05T13:03:53;4.30;99.90
48876;DHT22;34689;51.644;5.618;2022-12-05T13:06:56;4.30;99.90
48876;DHT22;34689;51.644;5.618;2022-12-05T13:09:34;4.30;99.90
48876;DHT22;34689;51.644;5.618;2022-12-05T13:12:07;4.30;99.90
48876;DHT22;34689;51.644;5.618;2022-12-05T13:14:37;4.30;99.90
48876;DHT22;34689;51.644;5.618;2022-12-05T13:17:04;4.30;99.90
48876;DHT22;34689;51.644;5.618;2022-12-05T13:19:48;4.30;99.90
48876;DHT22;34689;51.644;5.618;2022-12-05T13:22:13;4.30;99.90
48876;DHT22;34689;51.644;5.618;2022-12-05T13:24:40;4.30;99.90
48876;DHT22;34689;51.644;5.618;2022-12-05T13:27:13;4.30;99.90
48876;DHT22;34689;51.644;5.618;2022-12-05T13:29:53;4.20;99.90
48876;DHT22;34689;51.644;5.618;2022-12-05T13:32:31;4.30;99.90
48876;DHT22;34689;51.644;5.618;2022-12-05T13:35:08;4.20;99.90
48876;DHT22;34689;51.644;5.618;2022-12-05T13:37:45;4.30;99.90
48876;DHT22;34689;51.644;5.618;2022-12-05T13:40:34;4.30;99.90
48876;DHT22;34689;51.644;5.618;2022-12-05T13:43:26;4.40;99.90
48876;DHT22;34689;51.644;5.618;2022-12-05T13:46:04;4.40;99.90
48876;DHT22;34689;51.644;5.618;2022-12-05T13:48:34;4.40;99.90
48876;DHT22;34689;51.644;5.618;2022-12-05T13:51:09;4.40;99.90
48876;DHT22;34689;51.644;5.618;2022-12-05T13:53:47;4.40;99.90
48876;DHT22;34689;51.644;5.618;2022-12-05T13:58:53;4.40;99.90
48876;DHT22;34689;51.644;5.618;2022-12-05T14:17:40;4.50;99.90
48876;DHT22;34689;51.644;5.618;2022-12-05T14:20:35;4.60;99.90
48876;DHT22;34689;51.644;5.618;2022-12-05T14:29:00;4.50;99.90
48876;DHT22;34689;51.644;5.618;2022-12-05T14:34:16;4.60;99.90
48876;DHT22;34689;51.644;5.618;2022-12-05T14:39:37;4.50;99.90
48876;DHT22;34689;51.644;5.618;2022-12-05T14:42:18;4.50;99.90
48876;DHT22;34689;51.644;5.618;2022-12-05T14:44:47;4.50;99.90
48876;DHT22;34689;51.644;5.618;2022-12-05T14:47:22;4.50;99.90
48876;DHT22;34689;51.644;5.618;2022-12-05T14:52:42;4.50;99.90
48876;DHT22;34689;51.644;5.618;2022-12-05T14:55:13;4.50;99.90
48876;DHT22;34689;51.644;5.618;2022-12-05T14:57:46;4.50;99.90
48876;DHT22;34689;51.644;5.618;2022-12-05T15:00:22;4.50;99.90
48876;DHT22;34689;51.644;5.618;2022-12-05T15:02:50;4.50;99.90
48876;DHT22;34689;51.644;5.618;2022-12-05T15:07:47;4.50;99.90
48876;DHT22;34689;51.644;5.618;2022-12-05T15:10:32;4.50;99.90
48876;DHT22;34689;51.644;5.618;2022-12-05T15:13:02;4.50;99.90
48876;DHT22;34689;51.644;5.618;2022-12-05T15:18:37;4.50;99.90
48876;DHT22;34689;51.644;5.618;2022-12-05T15:26:37;4.60;99.90
48876;DHT22;34689;51.644;5.618;2022-12-05T15:31:44;4.50;99.90
48876;DHT22;34689;51.644;5.618;2022-12-05T15:36:51;4.50;99.90
48876;DHT22;34689;51.644;5.618;2022-12-05T15:39:22;4.60;99.90
48876;DHT22;34689;51.644;5.618;2022-12-05T15:41:51;4.60;99.90
48876;DHT22;34689;51.644;5.618;2022-12-05T15:44:18;4.60;99.90
48876;DHT22;34689;51.644;5.618;2022-12-05T15:46:44;4.50;99.90
48876;DHT22;34689;51.644;5.618;2022-12-05T15:49:25;4.60;99.90
48876;DHT22;34689;51.644;5.618;2022-12-05T15:51:59;4.60;99.90
48876;DHT22;34689;51.644;5.618;2022-12-05T15:54:32;4.60;99.90
48876;DHT22;34689;51.644;5.618;2022-12-05T15:57:12;4.60;99.90
48876;DHT22;34689;51.644;5.618;2022-12-05T15:59:49;4.60;99.90
48876;DHT22;34689;51.644;5.618;2022-12-05T16:02:36;4.50;99.90
48876;DHT22;34689;51.644;5.618;2022-12-05T16:05:20;4.60;99.90
48876;DHT22;34689;51.644;5.618;2022-12-05T16:07:49;4.60;99.90
48876;DHT22;34689;51.644;5.618;2022-12-05T16:10:16;4.70;99.90
48876;DHT22;34689;51.644;5.618;2022-12-05T16:12:45;4.60;99.90
48876;DHT22;34689;51.644;5.618;2022-12-05T16:15:15;4.60;99.90
48876;DHT22;34689;51.644;5.618;2022-12-05T16:17:46;4.60;99.90
48876;DHT22;34689;51.644;5.618;2022-12-05T16:22:46;4.60;99.90
48876;DHT22;34689;51.644;5.618;2022-12-05T16:25:21;4.70;99.90
48876;DHT22;34689;51.644;5.618;2022-12-05T16:30:24;4.70;99.90
48876;DHT22;34689;51.644;5.618;2022-12-05T16:33:02;4.70;99.90
48876;DHT22;34689;51.644;5.618;2022-12-05T16:38:20;4.60;99.90
48876;DHT22;34689;51.644;5.618;2022-12-05T16:40:58;4.60;99.90
48876;DHT22;34689;51.644;5.618;2022-12-05T16:48:29;4.70;99.90
48876;DHT22;34689;51.644;5.618;2022-12-05T16:51:16;4.70;99.90
48876;DHT22;34689;51.644;5.618;2022-12-05T16:53:48;4.70;99.90
48876;DHT22;34689;51.644;5.618;2022-12-05T16:58:41;4.70;99.90
48876;DHT22;34689;51.644;5.618;2022-12-05T17:01:15;4.70;99.90
48876;DHT22;34689;51.644;5.618;2022-12-05T17:03:42;4.70;99.90
48876;DHT22;34689;51.644;5.618;2022-12-05T17:06:08;4.80;99.90
48876;DHT22;34689;51.644;5.618;2022-12-05T17:08:33;4.70;99.90
48876;DHT22;34689;51.644;5.618;2022-12-05T17:11:00;4.70;99.90
48876;DHT22;34689;51.644;5.618;2022-12-05T17:13:29;4.70;99.90
48876;DHT22;34689;51.644;5.618;2022-12-05T17:15:54;4.80;99.90
48876;DHT22;34689;51.644;5.618;2022-12-05T17:18:20;4.80;99.90
48876;DHT22;34689;51.644;5.618;2022-12-05T17:20:49;4.80;99.90
48876;DHT22;34689;51.644;5.618;2022-12-05T17:23:16;4.80;99.90
48876;DHT22;34689;51.644;5.618;2022-12-05T17:25:48;4.80;99.90
48876;DHT22;34689;51.644;5.618;2022-12-05T17:28:15;4.80;99.90
48876;DHT22;34689;51.644;5.618;2022-12-05T17:30:41;4.80;99.90
48876;DHT22;34689;51.644;5.618;2022-12-05T17:33:13;4.90;99.90
48876;DHT22;34689;51.644;5.618;2022-12-05T17:35:40;4.90;99.90
48876;DHT22;34689;51.644;5.618;2022-12-05T17:38:06;4.90;99.90
48876;DHT22;34689;51.644;5.618;2022-12-05T17:40:33;4.90;99.90
48876;DHT22;34689;51.644;5.618;2022-12-05T17:42:59;4.90;99.90
48876;DHT22;34689;51.644;5.618;2022-12-05T17:45:25;4.90;99.90
48876;DHT22;34689;51.644;5.618;2022-12-05T17:47:51;4.90;99.90
48876;DHT22;34689;51.644;5.618;2022-12-05T17:50:18;5.00;99.90
48876;DHT22;34689;51.644;5.618;2022-12-05T17:52:46;5.00;99.90
48876;DHT22;34689;51.644;5.618;2022-12-05T17:55:30;5.00;99.90
48876;DHT22;34689;51.644;5.618;2022-12-05T17:57:56;5.00;99.90
48876;DHT22;34689;51.644;5.618;2022-12-05T18:00:23;5.00;99.90
48876;DHT22;34689;51.644;5.618;2022-12-05T18:02:49;5.10;99.90
48876;DHT22;34689;51.644;5.618;2022-12-05T18:05:16;5.10;99.90
48876;DHT22;34689;51.644;5.618;2022-12-05T18:07:43;5.10;99.90
48876;DHT22;34689;51.644;5.618;2022-12-05T18:10:11;5.10;99.90
48876;DHT22;34689;51.644;5.618;2022-12-05T18:12:38;5.10;99.90
48876;DHT22;34689;51.644;5.618;2022-12-05T18:15:04;5.00;99.90
48876;DHT22;34689;51.644;5.618;2022-12-05T18:17:30;5.10;99.90
48876;DHT22;34689;51.644;5.618;2022-12-05T18:19:56;5.10;99.90
48876;DHT22;34689;51.644;5.618;2022-12-05T18:22:23;5.10;99.90
48876;DHT22;34689;51.644;5.618;2022-12-05T18:24:49;5.10;99.90
48876;DHT22;34689;51.644;5.618;2022-12-05T18:27:14;5.10;99.90
48876;DHT22;34689;51.644;5.618;2022-12-05T18:29:40;5.10;99.90
48876;DHT22;34689;51.644;5.618;2022-12-05T18:32:06;5.10;99.90
48876;DHT22;34689;51.644;5.618;2022-12-05T18:34:31;5.10;99.90
48876;DHT22;34689;51.644;5.618;2022-12-05T18:36:57;5.10;99.90
48876;DHT22;34689;51.644;5.618;2022-12-05T18:39:23;5.20;99.90
48876;DHT22;34689;51.644;5.618;2022-12-05T18:41:48;5.20;99.90
48876;DHT22;34689;51.644;5.618;2022-12-05T18:44:14;5.20;99.90
48876;DHT22;34689;51.644;5.618;2022-12-05T18:46:40;5.10;99.90
48876;DHT22;34689;51.644;5.618;2022-12-05T18:49:06;5.20;99.90
48876;DHT22;34689;51.644;5.618;2022-12-05T18:51:32;5.20;99.90
48876;DHT22;34689;51.644;5.618;2022-12-05T18:53:58;5.20;99.90
48876;DHT22;34689;51.644;5.618;2022-12-05T18:56:29;5.20;99.90
48876;DHT22;34689;51.644;5.618;2022-12-05T18:59:03;5.20;99.90
48876;DHT22;34689;51.644;5.618;2022-12-05T19:01:30;5.20;99.90